sensor_id;sensor_type;location;lat;lon;timestamp;P1;durP1;ratioP1;P2;durP2;ratioP2
40695;SDS011;40425;51.102;17.208;2023-05-13T00:02:03;4.63;;;2.58;;
40695;SDS011;40425;51.102;17.208;2023-05-13T00:07:07;11.73;;;3.58;;
40695;SDS011;40425;51.102;17.208;2023-05-13T00:12:08;8.68;;;3.25;;
40695;SDS011;40425;51.102;17.208;2023-05-13T00:17:09;6.75;;;2.83;;
40695;SDS011;40425;51.102;17.208;2023-05-13T00:22:10;4.15;;;2.40;;
40695;SDS011;40425;51.102;17.208;2023-05-13T00:27:11;5.78;;;2.47;;
40695;SDS011;40425;51.102;17.208;2023-05-13T00:32:12;6.25;;;2.67;;
40695;SDS011;40425;51.102;17.208;2023-05-13T00:37:12;5.88;;;2.80;;
40695;SDS011;40425;51.102;17.208;2023-05-13T00:42:13;7.07;;;2.30;;
40695;SDS011;40425;51.102;17.208;2023-05-13T00:47:14;5.75;;;2.72;;
40695;SDS011;40425;51.102;17.208;2023-05-13T00:52:16;7.47;;;2.10;;
40695;SDS011;40425;51.102;17.208;2023-05-13T00:57:17;7.03;;;2.40;;
40695;SDS011;40425;51.102;17.208;2023-05-13T01:02:23;6.38;;;2.35;;
40695;SDS011;40425;51.102;17.208;2023-05-13T01:12:40;6.35;;;2.33;;
40695;SDS011;40425;51.102;17.208;2023-05-13T01:23:10;10.82;;;2.85;;
40695;SDS011;40425;51.102;17.208;2023-05-13T01:28:12;6.03;;;2.90;;
40695;SDS011;40425;51.102;17.208;2023-05-13T01:33:13;4.32;;;2.38;;
40695;SDS011;40425;51.102;17.208;2023-05-13T01:38:16;12.80;;;2.80;;
40695;SDS011;40425;51.102;17.208;2023-05-13T01:43:19;6.55;;;3.20;;
40695;SDS011;40425;51.102;17.208;2023-05-13T01:48:20;5.43;;;2.75;;
40695;SDS011;40425;51.102;17.208;2023-05-13T01:53:21;4.30;;;2.30;;
40695;SDS011;40425;51.102;17.208;2023-05-13T01:58:22;6.80;;;2.97;;
40695;SDS011;40425;51.102;17.208;2023-05-13T02:03:22;7.65;;;2.67;;
40695;SDS011;40425;51.102;17.208;2023-05-13T02:08:23;6.07;;;2.95;;
40695;SDS011;40425;51.102;17.208;2023-05-13T02:13:26;5.55;;;2.53;;
40695;SDS011;40425;51.102;17.208;2023-05-13T02:18:27;8.38;;;2.80;;
40695;SDS011;40425;51.102;17.208;2023-05-13T02:23:28;6.93;;;3.10;;
40695;SDS011;40425;51.102;17.208;2023-05-13T02:28:29;9.10;;;3.17;;
40695;SDS011;40425;51.102;17.208;2023-05-13T02:33:30;9.00;;;3.13;;
40695;SDS011;40425;51.102;17.208;2023-05-13T02:38:31;7.00;;;3.30;;
40695;SDS011;40425;51.102;17.208;2023-05-13T02:43:31;5.77;;;3.47;;
40695;SDS011;40425;51.102;17.208;2023-05-13T02:48:33;8.13;;;3.40;;
40695;SDS011;40425;51.102;17.208;2023-05-13T02:53:34;4.87;;;3.40;;
40695;SDS011;40425;51.102;17.208;2023-05-13T02:58:34;8.90;;;3.17;;
40695;SDS011;40425;51.102;17.208;2023-05-13T03:03:35;6.50;;;3.33;;
40695;SDS011;40425;51.102;17.208;2023-05-13T03:08:36;6.33;;;3.30;;
40695;SDS011;40425;51.102;17.208;2023-05-13T03:13:37;7.90;;;3.77;;
40695;SDS011;40425;51.102;17.208;2023-05-13T03:18:38;4.23;;;3.40;;
40695;SDS011;40425;51.102;17.208;2023-05-13T03:23:39;8.17;;;3.53;;
40695;SDS011;40425;51.102;17.208;2023-05-13T03:28:40;8.33;;;3.23;;
40695;SDS011;40425;51.102;17.208;2023-05-13T03:33:41;7.40;;;3.13;;
40695;SDS011;40425;51.102;17.208;2023-05-13T03:38:42;7.17;;;2.80;;
40695;SDS011;40425;51.102;17.208;2023-05-13T03:43:43;9.07;;;3.10;;
40695;SDS011;40425;51.102;17.208;2023-05-13T03:48:44;6.57;;;4.10;;
40695;SDS011;40425;51.102;17.208;2023-05-13T03:53:45;7.07;;;3.37;;
40695;SDS011;40425;51.102;17.208;2023-05-13T03:58:45;9.53;;;3.20;;
40695;SDS011;40425;51.102;17.208;2023-05-13T04:03:46;7.70;;;3.30;;
40695;SDS011;40425;51.102;17.208;2023-05-13T04:08:49;5.45;;;3.33;;
40695;SDS011;40425;51.102;17.208;2023-05-13T04:13:50;4.78;;;2.83;;
40695;SDS011;40425;51.102;17.208;2023-05-13T04:18:51;9.82;;;2.95;;
40695;SDS011;40425;51.102;17.208;2023-05-13T04:23:52;8.90;;;3.13;;
40695;SDS011;40425;51.102;17.208;2023-05-13T04:28:53;12.60;;;3.13;;
40695;SDS011;40425;51.102;17.208;2023-05-13T04:33:54;9.23;;;2.95;;
40695;SDS011;40425;51.102;17.208;2023-05-13T04:38:55;6.88;;;4.20;;
40695;SDS011;40425;51.102;17.208;2023-05-13T04:43:56;4.65;;;2.80;;
40695;SDS011;40425;51.102;17.208;2023-05-13T04:48:57;5.28;;;2.88;;
40695;SDS011;40425;51.102;17.208;2023-05-13T04:53:58;9.32;;;2.70;;
40695;SDS011;40425;51.102;17.208;2023-05-13T04:58:59;6.43;;;2.35;;
40695;SDS011;40425;51.102;17.208;2023-05-13T05:03:59;7.05;;;2.90;;
40695;SDS011;40425;51.102;17.208;2023-05-13T05:09:01;5.97;;;3.08;;
40695;SDS011;40425;51.102;17.208;2023-05-13T05:14:02;7.22;;;2.58;;
40695;SDS011;40425;51.102;17.208;2023-05-13T05:19:03;4.72;;;2.33;;
40695;SDS011;40425;51.102;17.208;2023-05-13T05:24:04;6.93;;;2.90;;
40695;SDS011;40425;51.102;17.208;2023-05-13T05:29:06;6.88;;;3.15;;
40695;SDS011;40425;51.102;17.208;2023-05-13T05:34:06;4.55;;;2.70;;
40695;SDS011;40425;51.102;17.208;2023-05-13T05:39:07;4.38;;;2.38;;
40695;SDS011;40425;51.102;17.208;2023-05-13T05:44:08;4.75;;;2.40;;
40695;SDS011;40425;51.102;17.208;2023-05-13T05:49:12;7.68;;;2.47;;
40695;SDS011;40425;51.102;17.208;2023-05-13T05:54:13;7.28;;;2.90;;
40695;SDS011;40425;51.102;17.208;2023-05-13T05:59:14;4.97;;;2.58;;
40695;SDS011;40425;51.102;17.208;2023-05-13T06:04:15;4.40;;;2.45;;
40695;SDS011;40425;51.102;17.208;2023-05-13T06:09:16;9.13;;;2.50;;
40695;SDS011;40425;51.102;17.208;2023-05-13T06:14:17;8.63;;;2.72;;
40695;SDS011;40425;51.102;17.208;2023-05-13T06:19:18;6.22;;;2.25;;
40695;SDS011;40425;51.102;17.208;2023-05-13T06:24:19;8.10;;;2.80;;
40695;SDS011;40425;51.102;17.208;2023-05-13T06:29:19;10.70;;;2.88;;
40695;SDS011;40425;51.102;17.208;2023-05-13T06:34:20;4.57;;;2.17;;
40695;SDS011;40425;51.102;17.208;2023-05-13T06:39:21;4.80;;;2.40;;
40695;SDS011;40425;51.102;17.208;2023-05-13T06:44:22;8.02;;;2.85;;
40695;SDS011;40425;51.102;17.208;2023-05-13T06:49:23;14.18;;;3.05;;
40695;SDS011;40425;51.102;17.208;2023-05-13T06:54:24;6.53;;;2.97;;
40695;SDS011;40425;51.102;17.208;2023-05-13T06:59:26;4.05;;;2.63;;
40695;SDS011;40425;51.102;17.208;2023-05-13T07:04:29;9.45;;;3.63;;
40695;SDS011;40425;51.102;17.208;2023-05-13T07:09:30;5.22;;;2.53;;
40695;SDS011;40425;51.102;17.208;2023-05-13T07:14:32;6.05;;;2.25;;
40695;SDS011;40425;51.102;17.208;2023-05-13T07:19:32;4.65;;;2.35;;
40695;SDS011;40425;51.102;17.208;2023-05-13T07:24:33;20.30;;;4.70;;
40695;SDS011;40425;51.102;17.208;2023-05-13T07:29:34;6.55;;;2.65;;
40695;SDS011;40425;51.102;17.208;2023-05-13T07:34:35;10.02;;;3.22;;
40695;SDS011;40425;51.102;17.208;2023-05-13T07:39:36;8.88;;;2.83;;
40695;SDS011;40425;51.102;17.208;2023-05-13T07:44:38;6.05;;;3.00;;
40695;SDS011;40425;51.102;17.208;2023-05-13T07:49:39;8.25;;;3.13;;
40695;SDS011;40425;51.102;17.208;2023-05-13T07:54:40;14.40;;;6.93;;
40695;SDS011;40425;51.102;17.208;2023-05-13T07:59:41;6.70;;;2.88;;
40695;SDS011;40425;51.102;17.208;2023-05-13T08:04:42;5.63;;;2.67;;
40695;SDS011;40425;51.102;17.208;2023-05-13T08:09:43;6.47;;;1.75;;
40695;SDS011;40425;51.102;17.208;2023-05-13T08:14:44;8.45;;;4.00;;
40695;SDS011;40425;51.102;17.208;2023-05-13T08:19:47;3.92;;;2.17;;
40695;SDS011;40425;51.102;17.208;2023-05-13T08:24:48;6.00;;;3.60;;
40695;SDS011;40425;51.102;17.208;2023-05-13T08:29:49;6.93;;;2.88;;
40695;SDS011;40425;51.102;17.208;2023-05-13T08:34:50;5.35;;;2.97;;
40695;SDS011;40425;51.102;17.208;2023-05-13T08:39:51;5.03;;;2.58;;
40695;SDS011;40425;51.102;17.208;2023-05-13T08:44:55;7.82;;;2.78;;
40695;SDS011;40425;51.102;17.208;2023-05-13T08:49:57;9.15;;;2.40;;
40695;SDS011;40425;51.102;17.208;2023-05-13T08:54:58;4.03;;;1.98;;
40695;SDS011;40425;51.102;17.208;2023-05-13T09:00:00;6.57;;;1.90;;
40695;SDS011;40425;51.102;17.208;2023-05-13T09:05:03;4.45;;;2.28;;
40695;SDS011;40425;51.102;17.208;2023-05-13T09:10:07;3.83;;;1.77;;
40695;SDS011;40425;51.102;17.208;2023-05-13T09:15:10;4.57;;;1.65;;
40695;SDS011;40425;51.102;17.208;2023-05-13T09:20:12;3.55;;;1.85;;
40695;SDS011;40425;51.102;17.208;2023-05-13T09:25:16;3.38;;;1.50;;
40695;SDS011;40425;51.102;17.208;2023-05-13T09:30:20;3.47;;;1.38;;
40695;SDS011;40425;51.102;17.208;2023-05-13T09:35:21;5.10;;;2.10;;
40695;SDS011;40425;51.102;17.208;2023-05-13T09:40:22;7.95;;;1.30;;
40695;SDS011;40425;51.102;17.208;2023-05-13T09:45:23;5.55;;;1.13;;
40695;SDS011;40425;51.102;17.208;2023-05-13T09:50:25;5.68;;;1.38;;
40695;SDS011;40425;51.102;17.208;2023-05-13T09:55:27;3.28;;;1.23;;
40695;SDS011;40425;51.102;17.208;2023-05-13T10:00:28;2.35;;;0.77;;
40695;SDS011;40425;51.102;17.208;2023-05-13T10:05:30;4.15;;;1.23;;
40695;SDS011;40425;51.102;17.208;2023-05-13T10:10:32;7.85;;;1.83;;
40695;SDS011;40425;51.102;17.208;2023-05-13T10:15:34;3.70;;;1.30;;
40695;SDS011;40425;51.102;17.208;2023-05-13T10:20:41;2.63;;;0.73;;
40695;SDS011;40425;51.102;17.208;2023-05-13T10:25:43;7.35;;;0.70;;
40695;SDS011;40425;51.102;17.208;2023-05-13T10:30:47;3.05;;;1.05;;
40695;SDS011;40425;51.102;17.208;2023-05-13T10:52:07;2.92;;;0.95;;
40695;SDS011;40425;51.102;17.208;2023-05-13T10:57:12;3.20;;;1.20;;
40695;SDS011;40425;51.102;17.208;2023-05-13T11:02:21;4.03;;;1.42;;
40695;SDS011;40425;51.102;17.208;2023-05-13T11:07:23;2.78;;;1.42;;
40695;SDS011;40425;51.102;17.208;2023-05-13T11:12:24;3.10;;;1.20;;
40695;SDS011;40425;51.102;17.208;2023-05-13T11:17:24;6.28;;;1.65;;
40695;SDS011;40425;51.102;17.208;2023-05-13T11:22:25;3.72;;;1.33;;
40695;SDS011;40425;51.102;17.208;2023-05-13T11:27:31;3.17;;;1.10;;
40695;SDS011;40425;51.102;17.208;2023-05-13T11:37:50;2.65;;;0.70;;
40695;SDS011;40425;51.102;17.208;2023-05-13T11:42:51;6.70;;;0.60;;
40695;SDS011;40425;51.102;17.208;2023-05-13T11:47:53;3.13;;;0.57;;
40695;SDS011;40425;51.102;17.208;2023-05-13T11:52:56;7.95;;;1.52;;
40695;SDS011;40425;51.102;17.208;2023-05-13T11:58:01;3.65;;;0.70;;
40695;SDS011;40425;51.102;17.208;2023-05-13T12:03:07;4.57;;;0.70;;
40695;SDS011;40425;51.102;17.208;2023-05-13T12:08:10;5.90;;;0.55;;
40695;SDS011;40425;51.102;17.208;2023-05-13T12:13:11;5.38;;;0.70;;
40695;SDS011;40425;51.102;17.208;2023-05-13T12:18:12;4.22;;;0.50;;
40695;SDS011;40425;51.102;17.208;2023-05-13T12:23:13;5.00;;;0.60;;
40695;SDS011;40425;51.102;17.208;2023-05-13T12:28:18;5.38;;;0.47;;
40695;SDS011;40425;51.102;17.208;2023-05-13T12:33:31;1.35;;;0.30;;
40695;SDS011;40425;51.102;17.208;2023-05-13T12:38:33;0.75;;;0.30;;
40695;SDS011;40425;51.102;17.208;2023-05-13T12:43:34;6.03;;;0.60;;
40695;SDS011;40425;51.102;17.208;2023-05-13T12:48:35;2.42;;;0.40;;
40695;SDS011;40425;51.102;17.208;2023-05-13T12:53:36;6.45;;;0.70;;
40695;SDS011;40425;51.102;17.208;2023-05-13T12:58:37;4.05;;;0.50;;
40695;SDS011;40425;51.102;17.208;2023-05-13T13:03:38;5.80;;;0.90;;
40695;SDS011;40425;51.102;17.208;2023-05-13T13:08:39;6.03;;;1.05;;
40695;SDS011;40425;51.102;17.208;2023-05-13T13:13:40;13.57;;;1.25;;
40695;SDS011;40425;51.102;17.208;2023-05-13T13:18:41;2.60;;;0.90;;
40695;SDS011;40425;51.102;17.208;2023-05-13T13:23:42;2.95;;;0.70;;
40695;SDS011;40425;51.102;17.208;2023-05-13T13:28:43;5.93;;;1.15;;
40695;SDS011;40425;51.102;17.208;2023-05-13T13:33:43;7.40;;;1.30;;
40695;SDS011;40425;51.102;17.208;2023-05-13T13:38:44;4.40;;;0.98;;
40695;SDS011;40425;51.102;17.208;2023-05-13T13:43:45;5.40;;;1.58;;
40695;SDS011;40425;51.102;17.208;2023-05-13T13:48:46;3.42;;;1.08;;
40695;SDS011;40425;51.102;17.208;2023-05-13T13:53:48;6.05;;;0.75;;
40695;SDS011;40425;51.102;17.208;2023-05-13T13:58:49;3.70;;;0.70;;
40695;SDS011;40425;51.102;17.208;2023-05-13T14:03:51;7.35;;;0.90;;
40695;SDS011;40425;51.102;17.208;2023-05-13T14:08:52;3.38;;;0.75;;
40695;SDS011;40425;51.102;17.208;2023-05-13T14:13:53;4.00;;;0.68;;
40695;SDS011;40425;51.102;17.208;2023-05-13T14:18:54;3.03;;;0.60;;
40695;SDS011;40425;51.102;17.208;2023-05-13T14:23:55;1.45;;;0.47;;
40695;SDS011;40425;51.102;17.208;2023-05-13T14:28:56;3.78;;;0.40;;
40695;SDS011;40425;51.102;17.208;2023-05-13T14:33:57;2.58;;;0.57;;
40695;SDS011;40425;51.102;17.208;2023-05-13T14:38:57;3.78;;;1.30;;
40695;SDS011;40425;51.102;17.208;2023-05-13T14:43:58;3.50;;;0.43;;
40695;SDS011;40425;51.102;17.208;2023-05-13T14:49:02;10.48;;;0.70;;
40695;SDS011;40425;51.102;17.208;2023-05-13T14:54:03;7.32;;;0.80;;
40695;SDS011;40425;51.102;17.208;2023-05-13T14:59:04;6.10;;;0.68;;
40695;SDS011;40425;51.102;17.208;2023-05-13T15:04:05;4.70;;;1.05;;
40695;SDS011;40425;51.102;17.208;2023-05-13T15:09:05;6.25;;;0.88;;
40695;SDS011;40425;51.102;17.208;2023-05-13T15:14:06;20.25;;;4.50;;
40695;SDS011;40425;51.102;17.208;2023-05-13T15:19:07;20.98;;;2.45;;
40695;SDS011;40425;51.102;17.208;2023-05-13T15:24:08;5.90;;;0.77;;
40695;SDS011;40425;51.102;17.208;2023-05-13T15:29:09;7.72;;;1.40;;
40695;SDS011;40425;51.102;17.208;2023-05-13T15:34:10;6.47;;;1.13;;
40695;SDS011;40425;51.102;17.208;2023-05-13T15:39:11;16.45;;;1.80;;
40695;SDS011;40425;51.102;17.208;2023-05-13T15:44:12;7.57;;;1.60;;
40695;SDS011;40425;51.102;17.208;2023-05-13T15:49:13;8.10;;;1.00;;
40695;SDS011;40425;51.102;17.208;2023-05-13T15:54:13;8.32;;;1.30;;
40695;SDS011;40425;51.102;17.208;2023-05-13T15:59:14;5.35;;;0.70;;
40695;SDS011;40425;51.102;17.208;2023-05-13T16:04:15;8.18;;;1.63;;
40695;SDS011;40425;51.102;17.208;2023-05-13T16:09:16;10.50;;;1.38;;
40695;SDS011;40425;51.102;17.208;2023-05-13T16:14:17;4.82;;;1.75;;
40695;SDS011;40425;51.102;17.208;2023-05-13T16:19:18;11.57;;;1.77;;
40695;SDS011;40425;51.102;17.208;2023-05-13T16:24:19;2.50;;;0.77;;
40695;SDS011;40425;51.102;17.208;2023-05-13T16:29:21;7.05;;;0.95;;
40695;SDS011;40425;51.102;17.208;2023-05-13T16:34:22;5.43;;;0.77;;
40695;SDS011;40425;51.102;17.208;2023-05-13T16:39:25;6.07;;;1.25;;
40695;SDS011;40425;51.102;17.208;2023-05-13T16:44:26;8.73;;;0.80;;
40695;SDS011;40425;51.102;17.208;2023-05-13T16:49:27;6.20;;;1.25;;
40695;SDS011;40425;51.102;17.208;2023-05-13T16:54:28;3.75;;;0.85;;
40695;SDS011;40425;51.102;17.208;2023-05-13T16:59:29;6.60;;;0.82;;
40695;SDS011;40425;51.102;17.208;2023-05-13T17:04:30;6.38;;;1.00;;
40695;SDS011;40425;51.102;17.208;2023-05-13T17:09:31;9.27;;;1.20;;
40695;SDS011;40425;51.102;17.208;2023-05-13T17:14:33;9.68;;;1.70;;
40695;SDS011;40425;51.102;17.208;2023-05-13T17:19:33;5.28;;;1.38;;
40695;SDS011;40425;51.102;17.208;2023-05-13T17:24:34;10.32;;;1.65;;
40695;SDS011;40425;51.102;17.208;2023-05-13T17:29:37;13.02;;;1.58;;
40695;SDS011;40425;51.102;17.208;2023-05-13T17:34:38;13.23;;;1.92;;
40695;SDS011;40425;51.102;17.208;2023-05-13T17:39:39;9.90;;;2.03;;
40695;SDS011;40425;51.102;17.208;2023-05-13T17:44:40;14.30;;;2.95;;
40695;SDS011;40425;51.102;17.208;2023-05-13T17:49:40;23.20;;;7.47;;
40695;SDS011;40425;51.102;17.208;2023-05-13T17:54:41;10.35;;;3.38;;
40695;SDS011;40425;51.102;17.208;2023-05-13T17:59:42;11.52;;;4.13;;
40695;SDS011;40425;51.102;17.208;2023-05-13T18:04:43;9.95;;;4.75;;
40695;SDS011;40425;51.102;17.208;2023-05-13T18:09:44;32.47;;;22.75;;
40695;SDS011;40425;51.102;17.208;2023-05-13T18:14:45;8.27;;;3.97;;
40695;SDS011;40425;51.102;17.208;2023-05-13T18:19:45;8.73;;;4.13;;
40695;SDS011;40425;51.102;17.208;2023-05-13T18:24:46;10.27;;;3.78;;
40695;SDS011;40425;51.102;17.208;2023-05-13T18:29:47;10.48;;;4.75;;
40695;SDS011;40425;51.102;17.208;2023-05-13T18:34:48;10.30;;;5.35;;
40695;SDS011;40425;51.102;17.208;2023-05-13T18:39:49;18.85;;;9.00;;
40695;SDS011;40425;51.102;17.208;2023-05-13T18:44:50;21.95;;;7.20;;
40695;SDS011;40425;51.102;17.208;2023-05-13T18:49:51;16.25;;;6.70;;
40695;SDS011;40425;51.102;17.208;2023-05-13T18:54:52;15.95;;;9.25;;
40695;SDS011;40425;51.102;17.208;2023-05-13T18:59:53;24.95;;;9.43;;
40695;SDS011;40425;51.102;17.208;2023-05-13T19:04:53;26.50;;;9.95;;
40695;SDS011;40425;51.102;17.208;2023-05-13T19:09:54;21.83;;;8.55;;
40695;SDS011;40425;51.102;17.208;2023-05-13T19:14:55;18.02;;;8.85;;
40695;SDS011;40425;51.102;17.208;2023-05-13T19:19:57;20.05;;;9.85;;
40695;SDS011;40425;51.102;17.208;2023-05-13T19:25:00;17.50;;;6.32;;
40695;SDS011;40425;51.102;17.208;2023-05-13T19:30:02;18.52;;;8.02;;
40695;SDS011;40425;51.102;17.208;2023-05-13T19:35:05;18.80;;;9.68;;
40695;SDS011;40425;51.102;17.208;2023-05-13T19:40:06;19.35;;;10.80;;
40695;SDS011;40425;51.102;17.208;2023-05-13T19:45:09;20.80;;;11.23;;
40695;SDS011;40425;51.102;17.208;2023-05-13T19:50:16;21.10;;;8.95;;
40695;SDS011;40425;51.102;17.208;2023-05-13T19:55:17;12.82;;;7.53;;
40695;SDS011;40425;51.102;17.208;2023-05-13T20:00:19;12.95;;;6.63;;
40695;SDS011;40425;51.102;17.208;2023-05-13T20:05:20;11.38;;;7.00;;
40695;SDS011;40425;51.102;17.208;2023-05-13T20:10:21;14.20;;;8.00;;
40695;SDS011;40425;51.102;17.208;2023-05-13T20:15:22;12.90;;;7.32;;
40695;SDS011;40425;51.102;17.208;2023-05-13T20:20:23;16.73;;;8.40;;
40695;SDS011;40425;51.102;17.208;2023-05-13T20:25:24;21.38;;;9.65;;
40695;SDS011;40425;51.102;17.208;2023-05-13T20:30:25;13.50;;;8.48;;
40695;SDS011;40425;51.102;17.208;2023-05-13T20:35:26;15.85;;;8.23;;
40695;SDS011;40425;51.102;17.208;2023-05-13T20:40:27;15.13;;;9.05;;
40695;SDS011;40425;51.102;17.208;2023-05-13T20:45:28;15.43;;;8.95;;
40695;SDS011;40425;51.102;17.208;2023-05-13T20:50:29;17.88;;;8.75;;
40695;SDS011;40425;51.102;17.208;2023-05-13T20:55:30;14.63;;;9.20;;
40695;SDS011;40425;51.102;17.208;2023-05-13T21:00:31;16.08;;;8.60;;
40695;SDS011;40425;51.102;17.208;2023-05-13T21:05:31;20.77;;;8.98;;
40695;SDS011;40425;51.102;17.208;2023-05-13T21:10:32;12.80;;;8.27;;
40695;SDS011;40425;51.102;17.208;2023-05-13T21:15:33;17.38;;;9.00;;
40695;SDS011;40425;51.102;17.208;2023-05-13T21:20:34;15.70;;;8.48;;
40695;SDS011;40425;51.102;17.208;2023-05-13T21:25:35;14.93;;;8.27;;
40695;SDS011;40425;51.102;17.208;2023-05-13T21:30:36;14.57;;;7.88;;
40695;SDS011;40425;51.102;17.208;2023-05-13T21:35:37;16.67;;;8.10;;
40695;SDS011;40425;51.102;17.208;2023-05-13T21:40:38;14.38;;;7.32;;
40695;SDS011;40425;51.102;17.208;2023-05-13T21:45:39;14.45;;;8.32;;
40695;SDS011;40425;51.102;17.208;2023-05-13T21:50:40;13.93;;;6.43;;
40695;SDS011;40425;51.102;17.208;2023-05-13T21:55:41;6.40;;;4.72;;
40695;SDS011;40425;51.102;17.208;2023-05-13T22:00:43;8.65;;;5.80;;
40695;SDS011;40425;51.102;17.208;2023-05-13T22:05:44;11.20;;;5.82;;
40695;SDS011;40425;51.102;17.208;2023-05-13T22:10:45;9.90;;;5.50;;
40695;SDS011;40425;51.102;17.208;2023-05-13T22:15:46;11.77;;;5.85;;
40695;SDS011;40425;51.102;17.208;2023-05-13T22:20:47;10.57;;;5.78;;
40695;SDS011;40425;51.102;17.208;2023-05-13T22:25:49;12.68;;;5.55;;
40695;SDS011;40425;51.102;17.208;2023-05-13T22:30:50;10.18;;;6.20;;
40695;SDS011;40425;51.102;17.208;2023-05-13T22:35:51;11.50;;;6.10;;
40695;SDS011;40425;51.102;17.208;2023-05-13T22:40:52;10.70;;;6.13;;
40695;SDS011;40425;51.102;17.208;2023-05-13T22:45:52;8.88;;;5.88;;
40695;SDS011;40425;51.102;17.208;2023-05-13T22:50:54;9.93;;;6.18;;
40695;SDS011;40425;51.102;17.208;2023-05-13T22:55:56;8.75;;;5.65;;
40695;SDS011;40425;51.102;17.208;2023-05-13T23:00:57;8.00;;;5.53;;
40695;SDS011;40425;51.102;17.208;2023-05-13T23:05:58;9.77;;;6.13;;
40695;SDS011;40425;51.102;17.208;2023-05-13T23:10:58;10.80;;;6.00;;
40695;SDS011;40425;51.102;17.208;2023-05-13T23:15:59;10.40;;;5.60;;
40695;SDS011;40425;51.102;17.208;2023-05-13T23:21:00;13.73;;;6.03;;
40695;SDS011;40425;51.102;17.208;2023-05-13T23:26:01;12.23;;;5.80;;
40695;SDS011;40425;51.102;17.208;2023-05-13T23:31:04;14.00;;;6.95;;
40695;SDS011;40425;51.102;17.208;2023-05-13T23:36:05;12.07;;;5.93;;
40695;SDS011;40425;51.102;17.208;2023-05-13T23:41:06;12.10;;;5.90;;
40695;SDS011;40425;51.102;17.208;2023-05-13T23:46:07;9.17;;;5.10;;
40695;SDS011;40425;51.102;17.208;2023-05-13T23:51:08;7.75;;;5.40;;
40695;SDS011;40425;51.102;17.208;2023-05-13T23:56:09;11.63;;;6.47;;
